This is the latest recevied weather packets stored in our database for station/object VA3BOO. If no packets are shown the sender has not sent any weather packets the latest 10 day(s).
| Time | Temp. | Humidity | Pressure | Rain* | Wind** | Luminosity | Snow |
|---|---|---|---|---|---|---|---|
| 1777816804 | 8.89° C | 44% | 1012.2 hPa | 0 mm | - | 532 W/m² | - |
| 1777816504 | 9.44° C | 40% | 1012.2 hPa | 0 mm | - | 518 W/m² | - |
| 1777816204 | 9.44° C | 43% | 1012.1 hPa | 0 mm | - | 502 W/m² | - |
| 1777815904 | 8.33° C | 46% | 1012.3 hPa | 0 mm | - | 487 W/m² | - |
| 1777815605 | 7.78° C | 46% | 1012.5 hPa | 0 mm | - | 471 W/m² | - |
| 1777815305 | 7.78° C | 46% | 1012.4 hPa | 0 mm | - | 461 W/m² | - |
| 1777815005 | 7.22° C | 48% | 1012.5 hPa | 0 mm | - | 458 W/m² | - |
| 1777814705 | 7.22° C | 50% | 1012.3 hPa | 0 mm | - | 185 W/m² | - |
| 1777814405 | 7.22° C | 48% | 1012.6 hPa | 0 mm | - | 194 W/m² | - |
| 1777814105 | 6.67° C | 53% | 1012.4 hPa | 0 mm | - | 230 W/m² | - |
| 1777813804 | 6.67° C | 51% | 1012.5 hPa | 0 mm | - | 209 W/m² | - |
| 1777813504 | 6.67° C | 53% | 1012.6 hPa | 0 mm | - | 180 W/m² | - |
| 1777813205 | 6.11° C | 53% | 1012.5 hPa | 0 mm | - | 154 W/m² | - |
| 1777812904 | 6.67° C | 51% | 1012.4 hPa | 0 mm | - | 153 W/m² | - |
| 1777812604 | 6.67° C | 52% | 1012.7 hPa | 0 mm | - | 163 W/m² | - |
| 1777812304 | 6.67° C | 53% | 1012.5 hPa | 0 mm | - | 177 W/m² | - |
| 1777812004 | 6.11° C | 55% | 1012.5 hPa | 0 mm | - | 185 W/m² | - |
| 1777811705 | 6.11° C | 53% | 1012.5 hPa | 0 mm | - | 181 W/m² | - |
| 1777811404 | 6.11° C | 53% | 1012.4 hPa | 0 mm | - | 169 W/m² | - |
| 1777811105 | 5.56° C | 55% | 1012.3 hPa | 0 mm | - | 160 W/m² | - |
| 1777810805 | 6.11° C | 52% | 1012.2 hPa | 0 mm | - | 155 W/m² | - |
| 1777810504 | 5.56° C | 56% | 1012.4 hPa | 0 mm | - | 148 W/m² | - |
| 1777810205 | 5.56° C | 57% | 1012.5 hPa | 0 mm | - | 135 W/m² | - |
| 1777809904 | 5.56° C | 55% | 1012.5 hPa | 0 mm | - | 129 W/m² | - |
| 1777809604 | 5.56° C | 59% | 1012.5 hPa | 0 mm | - | 119 W/m² | - |
* Rain latest hour (hover to see other rain measurements)
** Current wind speed in m/s (hover to see current wind gust speed)